sensor_id;sensor_type;location;lat;lon;timestamp;temperature;humidity
25436;DHT22;13363;52.772;-3.890;2023-02-27T00:02:16;3.60;99.90
25436;DHT22;13363;52.772;-3.890;2023-02-27T00:04:41;3.50;99.90
25436;DHT22;13363;52.772;-3.890;2023-02-27T00:07:07;3.50;99.90
25436;DHT22;13363;52.772;-3.890;2023-02-27T00:09:33;3.40;99.90
25436;DHT22;13363;52.772;-3.890;2023-02-27T00:11:59;3.40;99.90
25436;DHT22;13363;52.772;-3.890;2023-02-27T00:14:25;3.50;99.90
25436;DHT22;13363;52.772;-3.890;2023-02-27T00:16:51;3.50;99.90
25436;DHT22;13363;52.772;-3.890;2023-02-27T00:19:17;3.50;99.90
25436;DHT22;13363;52.772;-3.890;2023-02-27T00:21:42;3.50;99.90
25436;DHT22;13363;52.772;-3.890;2023-02-27T00:24:11;3.50;99.90
25436;DHT22;13363;52.772;-3.890;2023-02-27T00:26:37;3.60;99.90
25436;DHT22;13363;52.772;-3.890;2023-02-27T00:29:03;3.60;99.90
25436;DHT22;13363;52.772;-3.890;2023-02-27T00:31:29;3.60;99.90
25436;DHT22;13363;52.772;-3.890;2023-02-27T00:33:55;3.60;99.90
25436;DHT22;13363;52.772;-3.890;2023-02-27T00:36:21;3.80;99.90
25436;DHT22;13363;52.772;-3.890;2023-02-27T00:38:47;4.00;99.90
25436;DHT22;13363;52.772;-3.890;2023-02-27T00:41:13;4.00;99.90
25436;DHT22;13363;52.772;-3.890;2023-02-27T00:43:39;4.10;99.90
25436;DHT22;13363;52.772;-3.890;2023-02-27T00:46:04;4.00;99.90
25436;DHT22;13363;52.772;-3.890;2023-02-27T00:48:30;4.00;99.90
25436;DHT22;13363;52.772;-3.890;2023-02-27T00:50:56;4.10;99.90
25436;DHT22;13363;52.772;-3.890;2023-02-27T00:53:22;4.20;99.90
25436;DHT22;13363;52.772;-3.890;2023-02-27T00:55:49;4.10;99.90
25436;DHT22;13363;52.772;-3.890;2023-02-27T00:58:15;4.20;99.90
25436;DHT22;13363;52.772;-3.890;2023-02-27T01:00:41;4.10;99.90
25436;DHT22;13363;52.772;-3.890;2023-02-27T01:03:06;4.30;99.90
25436;DHT22;13363;52.772;-3.890;2023-02-27T01:05:32;4.30;99.90
25436;DHT22;13363;52.772;-3.890;2023-02-27T01:07:58;4.30;99.90
25436;DHT22;13363;52.772;-3.890;2023-02-27T01:10:24;4.20;99.90
25436;DHT22;13363;52.772;-3.890;2023-02-27T01:12:50;4.20;99.90
25436;DHT22;13363;52.772;-3.890;2023-02-27T01:15:16;4.20;99.90
25436;DHT22;13363;52.772;-3.890;2023-02-27T01:17:42;4.30;99.90
25436;DHT22;13363;52.772;-3.890;2023-02-27T01:20:10;4.30;99.90
25436;DHT22;13363;52.772;-3.890;2023-02-27T01:22:37;4.30;99.90
25436;DHT22;13363;52.772;-3.890;2023-02-27T01:25:03;4.30;99.90
25436;DHT22;13363;52.772;-3.890;2023-02-27T01:27:29;4.50;99.90
25436;DHT22;13363;52.772;-3.890;2023-02-27T01:29:55;4.60;99.90
25436;DHT22;13363;52.772;-3.890;2023-02-27T01:32:21;4.70;99.90
25436;DHT22;13363;52.772;-3.890;2023-02-27T01:34:46;4.90;99.90
25436;DHT22;13363;52.772;-3.890;2023-02-27T01:37:12;5.00;99.90
25436;DHT22;13363;52.772;-3.890;2023-02-27T01:39:38;5.20;99.90
25436;DHT22;13363;52.772;-3.890;2023-02-27T01:42:12;5.20;99.90
25436;DHT22;13363;52.772;-3.890;2023-02-27T01:47:40;5.40;99.90
25436;DHT22;13363;52.772;-3.890;2023-02-27T01:50:07;5.30;99.90
25436;DHT22;13363;52.772;-3.890;2023-02-27T01:52:34;5.30;99.90
25436;DHT22;13363;52.772;-3.890;2023-02-27T01:55:02;5.40;99.90
25436;DHT22;13363;52.772;-3.890;2023-02-27T01:57:28;5.40;99.90
25436;DHT22;13363;52.772;-3.890;2023-02-27T01:59:54;5.40;99.90
25436;DHT22;13363;52.772;-3.890;2023-02-27T02:02:34;5.40;99.90
25436;DHT22;13363;52.772;-3.890;2023-02-27T02:05:01;5.30;99.90
25436;DHT22;13363;52.772;-3.890;2023-02-27T02:07:27;5.40;99.90
25436;DHT22;13363;52.772;-3.890;2023-02-27T02:09:56;5.40;99.90
25436;DHT22;13363;52.772;-3.890;2023-02-27T02:12:29;5.30;99.90
25436;DHT22;13363;52.772;-3.890;2023-02-27T02:14:56;5.20;99.90
25436;DHT22;13363;52.772;-3.890;2023-02-27T02:22:46;5.40;99.90
25436;DHT22;13363;52.772;-3.890;2023-02-27T02:31:22;5.40;99.90
25436;DHT22;13363;52.772;-3.890;2023-02-27T02:43:18;5.10;99.90
25436;DHT22;13363;52.772;-3.890;2023-02-27T02:51:16;5.10;99.90
25436;DHT22;13363;52.772;-3.890;2023-02-27T02:56:55;5.20;99.90
25436;DHT22;13363;52.772;-3.890;2023-02-27T03:02:26;5.20;99.90
25436;DHT22;13363;52.772;-3.890;2023-02-27T03:04:57;5.30;99.90
25436;DHT22;13363;52.772;-3.890;2023-02-27T03:07:46;5.30;99.90
25436;DHT22;13363;52.772;-3.890;2023-02-27T03:10:20;5.30;99.90
25436;DHT22;13363;52.772;-3.890;2023-02-27T03:12:54;5.60;99.90
25436;DHT22;13363;52.772;-3.890;2023-02-27T03:15:26;5.80;99.90
25436;DHT22;13363;52.772;-3.890;2023-02-27T03:20:25;6.00;99.90
25436;DHT22;13363;52.772;-3.890;2023-02-27T03:22:56;5.90;99.90
25436;DHT22;13363;52.772;-3.890;2023-02-27T03:25:25;6.00;99.90
25436;DHT22;13363;52.772;-3.890;2023-02-27T03:27:57;5.90;99.90
25436;DHT22;13363;52.772;-3.890;2023-02-27T03:30:36;5.90;99.90
25436;DHT22;13363;52.772;-3.890;2023-02-27T03:36:03;6.00;99.90
25436;DHT22;13363;52.772;-3.890;2023-02-27T03:38:59;6.00;99.90
25436;DHT22;13363;52.772;-3.890;2023-02-27T03:41:49;6.10;99.90
25436;DHT22;13363;52.772;-3.890;2023-02-27T03:47:16;6.30;99.90
25436;DHT22;13363;52.772;-3.890;2023-02-27T03:49:41;6.30;99.90
25436;DHT22;13363;52.772;-3.890;2023-02-27T03:52:07;6.30;99.90
25436;DHT22;13363;52.772;-3.890;2023-02-27T03:54:40;6.30;99.90
25436;DHT22;13363;52.772;-3.890;2023-02-27T03:57:09;6.30;99.90
25436;DHT22;13363;52.772;-3.890;2023-02-27T03:59:36;6.30;99.90
25436;DHT22;13363;52.772;-3.890;2023-02-27T04:02:03;6.30;99.90
25436;DHT22;13363;52.772;-3.890;2023-02-27T04:04:32;6.40;99.90
25436;DHT22;13363;52.772;-3.890;2023-02-27T04:15:23;6.60;99.90
25436;DHT22;13363;52.772;-3.890;2023-02-27T04:21:11;6.70;99.90
25436;DHT22;13363;52.772;-3.890;2023-02-27T04:23:45;6.60;99.90
25436;DHT22;13363;52.772;-3.890;2023-02-27T04:26:31;6.60;99.90
25436;DHT22;13363;52.772;-3.890;2023-02-27T04:34:39;6.30;99.90
25436;DHT22;13363;52.772;-3.890;2023-02-27T04:37:11;6.20;99.90
25436;DHT22;13363;52.772;-3.890;2023-02-27T04:39:53;6.20;99.90
25436;DHT22;13363;52.772;-3.890;2023-02-27T04:42:31;6.10;99.90
25436;DHT22;13363;52.772;-3.890;2023-02-27T04:45:03;6.00;99.90
25436;DHT22;13363;52.772;-3.890;2023-02-27T04:47:35;5.90;99.90
25436;DHT22;13363;52.772;-3.890;2023-02-27T04:50:13;5.90;99.90
25436;DHT22;13363;52.772;-3.890;2023-02-27T04:52:45;5.90;99.90
25436;DHT22;13363;52.772;-3.890;2023-02-27T04:55:31;5.90;99.90
25436;DHT22;13363;52.772;-3.890;2023-02-27T04:58:11;5.80;99.90
25436;DHT22;13363;52.772;-3.890;2023-02-27T05:00:41;5.80;99.90
25436;DHT22;13363;52.772;-3.890;2023-02-27T05:03:16;5.80;99.90
25436;DHT22;13363;52.772;-3.890;2023-02-27T05:05:43;5.70;99.90
25436;DHT22;13363;52.772;-3.890;2023-02-27T05:08:34;5.70;99.90
25436;DHT22;13363;52.772;-3.890;2023-02-27T05:11:12;5.80;99.90
25436;DHT22;13363;52.772;-3.890;2023-02-27T05:13:51;5.70;99.90
25436;DHT22;13363;52.772;-3.890;2023-02-27T05:18:44;5.50;99.90
25436;DHT22;13363;52.772;-3.890;2023-02-27T05:21:22;5.50;99.90
25436;DHT22;13363;52.772;-3.890;2023-02-27T05:29:02;5.50;99.90
25436;DHT22;13363;52.772;-3.890;2023-02-27T05:31:50;5.50;99.90
25436;DHT22;13363;52.772;-3.890;2023-02-27T05:34:24;5.50;99.90
25436;DHT22;13363;52.772;-3.890;2023-02-27T05:37:13;5.50;99.90
25436;DHT22;13363;52.772;-3.890;2023-02-27T05:39:41;5.50;99.90
25436;DHT22;13363;52.772;-3.890;2023-02-27T05:42:18;5.50;99.90
25436;DHT22;13363;52.772;-3.890;2023-02-27T05:45:50;5.50;99.90
25436;DHT22;13363;52.772;-3.890;2023-02-27T05:48:06;5.50;99.90
25436;DHT22;13363;52.772;-3.890;2023-02-27T05:50:34;5.50;99.90
25436;DHT22;13363;52.772;-3.890;2023-02-27T05:53:05;5.60;99.90
25436;DHT22;13363;52.772;-3.890;2023-02-27T05:55:40;5.70;99.90
25436;DHT22;13363;52.772;-3.890;2023-02-27T05:58:23;5.80;99.90
25436;DHT22;13363;52.772;-3.890;2023-02-27T06:00:57;5.90;99.90
25436;DHT22;13363;52.772;-3.890;2023-02-27T06:03:25;5.90;99.90
25436;DHT22;13363;52.772;-3.890;2023-02-27T06:05:52;5.80;99.90
25436;DHT22;13363;52.772;-3.890;2023-02-27T06:08:20;5.80;99.90
25436;DHT22;13363;52.772;-3.890;2023-02-27T06:10:46;5.90;99.90
25436;DHT22;13363;52.772;-3.890;2023-02-27T06:13:14;6.00;99.90
25436;DHT22;13363;52.772;-3.890;2023-02-27T06:15:44;5.90;99.90
25436;DHT22;13363;52.772;-3.890;2023-02-27T06:18:11;5.80;99.90
25436;DHT22;13363;52.772;-3.890;2023-02-27T06:20:38;5.90;99.90
25436;DHT22;13363;52.772;-3.890;2023-02-27T06:23:04;5.90;99.90
25436;DHT22;13363;52.772;-3.890;2023-02-27T06:25:31;5.90;99.90
25436;DHT22;13363;52.772;-3.890;2023-02-27T06:27:57;5.90;99.90
25436;DHT22;13363;52.772;-3.890;2023-02-27T06:30:23;6.00;99.90
25436;DHT22;13363;52.772;-3.890;2023-02-27T06:32:49;6.00;99.90
25436;DHT22;13363;52.772;-3.890;2023-02-27T06:35:15;6.00;99.90
25436;DHT22;13363;52.772;-3.890;2023-02-27T06:37:41;6.10;99.90
25436;DHT22;13363;52.772;-3.890;2023-02-27T06:40:07;6.20;99.90
25436;DHT22;13363;52.772;-3.890;2023-02-27T06:42:43;6.10;99.90
25436;DHT22;13363;52.772;-3.890;2023-02-27T06:45:11;6.20;99.90
25436;DHT22;13363;52.772;-3.890;2023-02-27T06:47:38;6.10;99.90
25436;DHT22;13363;52.772;-3.890;2023-02-27T06:50:05;6.10;99.90
25436;DHT22;13363;52.772;-3.890;2023-02-27T06:52:31;6.10;99.90
25436;DHT22;13363;52.772;-3.890;2023-02-27T06:54:57;6.00;99.90
25436;DHT22;13363;52.772;-3.890;2023-02-27T06:57:23;6.10;99.90
25436;DHT22;13363;52.772;-3.890;2023-02-27T06:59:50;6.10;99.90
25436;DHT22;13363;52.772;-3.890;2023-02-27T07:02:16;6.10;99.90
25436;DHT22;13363;52.772;-3.890;2023-02-27T07:04:42;6.10;99.90
25436;DHT22;13363;52.772;-3.890;2023-02-27T07:07:08;6.00;99.90
25436;DHT22;13363;52.772;-3.890;2023-02-27T07:09:35;6.10;99.90
25436;DHT22;13363;52.772;-3.890;2023-02-27T07:12:02;6.10;99.90
25436;DHT22;13363;52.772;-3.890;2023-02-27T07:14:28;6.20;99.90
25436;DHT22;13363;52.772;-3.890;2023-02-27T07:16:54;6.20;99.90
25436;DHT22;13363;52.772;-3.890;2023-02-27T07:19:22;6.20;99.90
25436;DHT22;13363;52.772;-3.890;2023-02-27T07:21:48;6.30;99.90
25436;DHT22;13363;52.772;-3.890;2023-02-27T07:24:14;6.30;99.90
25436;DHT22;13363;52.772;-3.890;2023-02-27T07:26:40;6.30;99.90
25436;DHT22;13363;52.772;-3.890;2023-02-27T07:29:06;6.40;99.90
25436;DHT22;13363;52.772;-3.890;2023-02-27T07:31:32;6.50;99.90
25436;DHT22;13363;52.772;-3.890;2023-02-27T07:33:58;6.60;99.90
25436;DHT22;13363;52.772;-3.890;2023-02-27T07:36:24;6.60;99.90
25436;DHT22;13363;52.772;-3.890;2023-02-27T07:38:50;6.70;99.90
25436;DHT22;13363;52.772;-3.890;2023-02-27T07:41:16;6.80;99.90
25436;DHT22;13363;52.772;-3.890;2023-02-27T07:43:42;6.80;99.90
25436;DHT22;13363;52.772;-3.890;2023-02-27T07:46:08;6.80;99.90
25436;DHT22;13363;52.772;-3.890;2023-02-27T07:48:34;6.80;99.90
25436;DHT22;13363;52.772;-3.890;2023-02-27T07:50:59;6.90;99.90
25436;DHT22;13363;52.772;-3.890;2023-02-27T07:53:25;6.80;99.90
25436;DHT22;13363;52.772;-3.890;2023-02-27T07:55:51;6.90;99.90
25436;DHT22;13363;52.772;-3.890;2023-02-27T07:58:17;6.90;99.90
25436;DHT22;13363;52.772;-3.890;2023-02-27T08:00:43;7.00;99.90
25436;DHT22;13363;52.772;-3.890;2023-02-27T08:03:09;7.00;99.90
25436;DHT22;13363;52.772;-3.890;2023-02-27T08:05:35;7.00;99.90
25436;DHT22;13363;52.772;-3.890;2023-02-27T08:08:02;7.00;99.90
25436;DHT22;13363;52.772;-3.890;2023-02-27T08:10:28;7.00;99.90
25436;DHT22;13363;52.772;-3.890;2023-02-27T08:12:54;7.00;99.90
25436;DHT22;13363;52.772;-3.890;2023-02-27T08:15:20;7.00;99.90
25436;DHT22;13363;52.772;-3.890;2023-02-27T08:17:47;7.00;99.90
25436;DHT22;13363;52.772;-3.890;2023-02-27T08:20:14;7.00;99.90
25436;DHT22;13363;52.772;-3.890;2023-02-27T08:22:41;7.10;99.90
25436;DHT22;13363;52.772;-3.890;2023-02-27T08:25:08;7.10;99.90
25436;DHT22;13363;52.772;-3.890;2023-02-27T08:27:36;7.10;99.90
25436;DHT22;13363;52.772;-3.890;2023-02-27T08:30:02;7.20;99.90
25436;DHT22;13363;52.772;-3.890;2023-02-27T08:32:28;7.10;99.90
25436;DHT22;13363;52.772;-3.890;2023-02-27T08:34:54;7.10;99.90
25436;DHT22;13363;52.772;-3.890;2023-02-27T08:37:20;7.10;99.90
25436;DHT22;13363;52.772;-3.890;2023-02-27T08:39:45;7.10;99.90
25436;DHT22;13363;52.772;-3.890;2023-02-27T08:42:11;7.00;99.90
25436;DHT22;13363;52.772;-3.890;2023-02-27T08:44:37;7.00;99.90
25436;DHT22;13363;52.772;-3.890;2023-02-27T08:47:03;7.10;99.90
25436;DHT22;13363;52.772;-3.890;2023-02-27T08:49:29;7.10;99.90
25436;DHT22;13363;52.772;-3.890;2023-02-27T08:51:56;7.20;99.90
25436;DHT22;13363;52.772;-3.890;2023-02-27T08:54:22;7.30;99.90
25436;DHT22;13363;52.772;-3.890;2023-02-27T08:56:47;7.40;99.90
25436;DHT22;13363;52.772;-3.890;2023-02-27T08:59:13;7.50;99.90
25436;DHT22;13363;52.772;-3.890;2023-02-27T09:01:39;7.50;99.90
25436;DHT22;13363;52.772;-3.890;2023-02-27T09:04:06;7.50;99.90
25436;DHT22;13363;52.772;-3.890;2023-02-27T09:06:34;7.50;99.90
25436;DHT22;13363;52.772;-3.890;2023-02-27T09:09:01;7.60;99.90
25436;DHT22;13363;52.772;-3.890;2023-02-27T09:11:27;7.70;99.90
25436;DHT22;13363;52.772;-3.890;2023-02-27T09:13:53;7.90;99.90
25436;DHT22;13363;52.772;-3.890;2023-02-27T09:16:20;8.00;99.90
25436;DHT22;13363;52.772;-3.890;2023-02-27T09:18:47;8.00;99.90
25436;DHT22;13363;52.772;-3.890;2023-02-27T09:21:13;8.00;99.90
25436;DHT22;13363;52.772;-3.890;2023-02-27T09:23:39;8.00;99.90
25436;DHT22;13363;52.772;-3.890;2023-02-27T09:26:05;7.90;99.90
25436;DHT22;13363;52.772;-3.890;2023-02-27T09:28:34;7.90;99.90
25436;DHT22;13363;52.772;-3.890;2023-02-27T09:31:07;7.90;99.90
25436;DHT22;13363;52.772;-3.890;2023-02-27T09:33:34;7.80;99.90
25436;DHT22;13363;52.772;-3.890;2023-02-27T09:36:00;7.90;99.90
25436;DHT22;13363;52.772;-3.890;2023-02-27T09:38:26;8.00;99.90
25436;DHT22;13363;52.772;-3.890;2023-02-27T09:40:53;8.30;99.90
25436;DHT22;13363;52.772;-3.890;2023-02-27T09:43:26;9.20;99.90
25436;DHT22;13363;52.772;-3.890;2023-02-27T09:45:55;9.80;99.90
25436;DHT22;13363;52.772;-3.890;2023-02-27T09:50:57;9.70;99.90
25436;DHT22;13363;52.772;-3.890;2023-02-27T09:53:35;9.50;99.90
25436;DHT22;13363;52.772;-3.890;2023-02-27T10:01:59;8.60;99.90
25436;DHT22;13363;52.772;-3.890;2023-02-27T10:04:46;8.40;99.90
25436;DHT22;13363;52.772;-3.890;2023-02-27T10:12:51;8.30;99.90
25436;DHT22;13363;52.772;-3.890;2023-02-27T10:20:56;8.40;99.90
25436;DHT22;13363;52.772;-3.890;2023-02-27T10:26:02;8.40;99.90
25436;DHT22;13363;52.772;-3.890;2023-02-27T10:28:30;8.40;99.90
25436;DHT22;13363;52.772;-3.890;2023-02-27T10:30:58;8.40;99.90
25436;DHT22;13363;52.772;-3.890;2023-02-27T10:33:35;8.50;99.90
25436;DHT22;13363;52.772;-3.890;2023-02-27T10:36:03;8.50;99.90
25436;DHT22;13363;52.772;-3.890;2023-02-27T10:38:46;8.50;99.90
25436;DHT22;13363;52.772;-3.890;2023-02-27T10:41:18;8.70;99.90
25436;DHT22;13363;52.772;-3.890;2023-02-27T10:43:45;8.80;99.90
25436;DHT22;13363;52.772;-3.890;2023-02-27T10:46:17;8.90;99.90
25436;DHT22;13363;52.772;-3.890;2023-02-27T10:48:45;9.00;99.90
25436;DHT22;13363;52.772;-3.890;2023-02-27T10:51:27;9.00;99.90
25436;DHT22;13363;52.772;-3.890;2023-02-27T10:56:55;8.90;99.90
25436;DHT22;13363;52.772;-3.890;2023-02-27T10:59:27;8.90;99.90
25436;DHT22;13363;52.772;-3.890;2023-02-27T11:04:47;9.10;99.90
25436;DHT22;13363;52.772;-3.890;2023-02-27T11:07:13;9.20;99.90
25436;DHT22;13363;52.772;-3.890;2023-02-27T11:09:59;9.20;99.90
25436;DHT22;13363;52.772;-3.890;2023-02-27T11:12:28;9.20;99.90
25436;DHT22;13363;52.772;-3.890;2023-02-27T11:15:00;9.20;99.90
25436;DHT22;13363;52.772;-3.890;2023-02-27T11:17:33;9.20;99.90
25436;DHT22;13363;52.772;-3.890;2023-02-27T11:20:02;9.30;99.90
25436;DHT22;13363;52.772;-3.890;2023-02-27T11:22:32;9.40;99.90
25436;DHT22;13363;52.772;-3.890;2023-02-27T11:25:20;9.40;99.90
25436;DHT22;13363;52.772;-3.890;2023-02-27T11:27:46;9.40;99.90
25436;DHT22;13363;52.772;-3.890;2023-02-27T11:30:28;9.60;99.90
25436;DHT22;13363;52.772;-3.890;2023-02-27T11:32:58;9.70;99.90
25436;DHT22;13363;52.772;-3.890;2023-02-27T11:35:34;9.80;99.90
25436;DHT22;13363;52.772;-3.890;2023-02-27T11:38:03;9.80;99.90
25436;DHT22;13363;52.772;-3.890;2023-02-27T11:40:32;9.90;99.90
25436;DHT22;13363;52.772;-3.890;2023-02-27T11:43:16;10.00;99.90
25436;DHT22;13363;52.772;-3.890;2023-02-27T11:45:53;9.90;99.90
25436;DHT22;13363;52.772;-3.890;2023-02-27T11:48:34;9.60;99.90
25436;DHT22;13363;52.772;-3.890;2023-02-27T11:56:36;9.50;99.90
25436;DHT22;13363;52.772;-3.890;2023-02-27T12:02:42;9.70;99.90
25436;DHT22;13363;52.772;-3.890;2023-02-27T12:05:14;9.60;99.90
25436;DHT22;13363;52.772;-3.890;2023-02-27T12:11:12;9.80;99.90
25436;DHT22;13363;52.772;-3.890;2023-02-27T12:13:38;9.70;99.90
25436;DHT22;13363;52.772;-3.890;2023-02-27T12:18:43;10.00;99.90
25436;DHT22;13363;52.772;-3.890;2023-02-27T12:21:33;10.00;99.90
25436;DHT22;13363;52.772;-3.890;2023-02-27T12:24:15;10.00;99.90
25436;DHT22;13363;52.772;-3.890;2023-02-27T12:26:50;10.10;99.90
25436;DHT22;13363;52.772;-3.890;2023-02-27T12:34:46;10.10;99.90
25436;DHT22;13363;52.772;-3.890;2023-02-27T12:37:23;10.10;99.90
25436;DHT22;13363;52.772;-3.890;2023-02-27T12:39:52;9.90;99.90
25436;DHT22;13363;52.772;-3.890;2023-02-27T12:59:42;9.70;99.90
25436;DHT22;13363;52.772;-3.890;2023-02-27T13:19:04;10.40;99.90
25436;DHT22;13363;52.772;-3.890;2023-02-27T13:26:49;10.40;99.90
25436;DHT22;13363;52.772;-3.890;2023-02-27T13:29:17;10.40;99.90
25436;DHT22;13363;52.772;-3.890;2023-02-27T13:34:56;10.30;99.90
25436;DHT22;13363;52.772;-3.890;2023-02-27T13:37:13;10.30;99.90
25436;DHT22;13363;52.772;-3.890;2023-02-27T13:39:50;10.40;99.90
25436;DHT22;13363;52.772;-3.890;2023-02-27T13:45:03;10.50;99.90
25436;DHT22;13363;52.772;-3.890;2023-02-27T13:49:55;10.60;99.90
25436;DHT22;13363;52.772;-3.890;2023-02-27T13:54:54;10.60;99.90
25436;DHT22;13363;52.772;-3.890;2023-02-27T13:57:25;10.60;99.90
25436;DHT22;13363;52.772;-3.890;2023-02-27T13:59:54;10.50;99.90
25436;DHT22;13363;52.772;-3.890;2023-02-27T14:05:35;10.40;99.90
25436;DHT22;13363;52.772;-3.890;2023-02-27T14:08:31;10.40;99.90
25436;DHT22;13363;52.772;-3.890;2023-02-27T14:11:13;10.30;99.90
25436;DHT22;13363;52.772;-3.890;2023-02-27T14:24:34;10.40;99.90
25436;DHT22;13363;52.772;-3.890;2023-02-27T14:27:15;10.30;99.90
25436;DHT22;13363;52.772;-3.890;2023-02-27T14:29:46;10.40;99.90
25436;DHT22;13363;52.772;-3.890;2023-02-27T14:32:24;10.30;99.90
25436;DHT22;13363;52.772;-3.890;2023-02-27T14:34:52;10.30;99.90
25436;DHT22;13363;52.772;-3.890;2023-02-27T14:37:21;10.40;99.90
25436;DHT22;13363;52.772;-3.890;2023-02-27T14:39:52;10.30;99.90
25436;DHT22;13363;52.772;-3.890;2023-02-27T14:45:21;10.30;99.90
25436;DHT22;13363;52.772;-3.890;2023-02-27T14:47:50;10.40;99.90
25436;DHT22;13363;52.772;-3.890;2023-02-27T14:50:29;10.40;99.90
25436;DHT22;13363;52.772;-3.890;2023-02-27T14:52:59;10.40;99.90
25436;DHT22;13363;52.772;-3.890;2023-02-27T14:55:29;10.40;99.90
25436;DHT22;13363;52.772;-3.890;2023-02-27T14:58:18;10.40;99.90
25436;DHT22;13363;52.772;-3.890;2023-02-27T15:08:46;10.20;99.90
25436;DHT22;13363;52.772;-3.890;2023-02-27T15:11:18;10.20;99.90
25436;DHT22;13363;52.772;-3.890;2023-02-27T15:13:46;10.10;99.90
25436;DHT22;13363;52.772;-3.890;2023-02-27T15:19:03;10.20;99.90
25436;DHT22;13363;52.772;-3.890;2023-02-27T15:21:36;10.10;99.90
25436;DHT22;13363;52.772;-3.890;2023-02-27T15:24:05;10.10;99.90
25436;DHT22;13363;52.772;-3.890;2023-02-27T15:26:37;10.20;99.90
25436;DHT22;13363;52.772;-3.890;2023-02-27T15:29:05;10.30;99.90
25436;DHT22;13363;52.772;-3.890;2023-02-27T15:31:33;10.30;99.90
25436;DHT22;13363;52.772;-3.890;2023-02-27T15:34:00;10.30;99.90
25436;DHT22;13363;52.772;-3.890;2023-02-27T15:36:28;10.30;99.90
25436;DHT22;13363;52.772;-3.890;2023-02-27T15:39:06;10.30;99.90
25436;DHT22;13363;52.772;-3.890;2023-02-27T15:41:33;10.40;99.90
25436;DHT22;13363;52.772;-3.890;2023-02-27T15:44:00;10.40;99.90
25436;DHT22;13363;52.772;-3.890;2023-02-27T15:46:27;10.30;99.90
25436;DHT22;13363;52.772;-3.890;2023-02-27T15:48:53;10.30;99.90
25436;DHT22;13363;52.772;-3.890;2023-02-27T15:51:20;10.30;99.90
25436;DHT22;13363;52.772;-3.890;2023-02-27T15:53:52;10.20;99.90
25436;DHT22;13363;52.772;-3.890;2023-02-27T15:56:23;10.00;99.90
25436;DHT22;13363;52.772;-3.890;2023-02-27T15:58:51;10.10;99.90
25436;DHT22;13363;52.772;-3.890;2023-02-27T16:01:24;10.00;99.90
25436;DHT22;13363;52.772;-3.890;2023-02-27T16:03:56;10.00;99.90
25436;DHT22;13363;52.772;-3.890;2023-02-27T16:06:37;10.00;99.90
25436;DHT22;13363;52.772;-3.890;2023-02-27T16:09:27;10.00;99.90
25436;DHT22;13363;52.772;-3.890;2023-02-27T16:12:18;9.90;99.90
25436;DHT22;13363;52.772;-3.890;2023-02-27T16:14:46;9.90;99.90
25436;DHT22;13363;52.772;-3.890;2023-02-27T16:17:29;9.90;99.90
25436;DHT22;13363;52.772;-3.890;2023-02-27T16:19:57;9.90;99.90
25436;DHT22;13363;52.772;-3.890;2023-02-27T16:22:23;9.80;99.90
25436;DHT22;13363;52.772;-3.890;2023-02-27T16:24:50;9.80;99.90
25436;DHT22;13363;52.772;-3.890;2023-02-27T16:27:22;9.80;99.90
25436;DHT22;13363;52.772;-3.890;2023-02-27T16:29:49;9.70;99.90
25436;DHT22;13363;52.772;-3.890;2023-02-27T16:32:36;9.70;99.90
25436;DHT22;13363;52.772;-3.890;2023-02-27T16:35:12;9.70;99.90
25436;DHT22;13363;52.772;-3.890;2023-02-27T16:37:40;9.70;99.90
25436;DHT22;13363;52.772;-3.890;2023-02-27T16:40:12;9.70;99.90
25436;DHT22;13363;52.772;-3.890;2023-02-27T16:42:38;9.60;99.90
25436;DHT22;13363;52.772;-3.890;2023-02-27T16:45:06;9.60;99.90
25436;DHT22;13363;52.772;-3.890;2023-02-27T16:47:32;9.60;99.90
25436;DHT22;13363;52.772;-3.890;2023-02-27T16:49:58;9.60;99.90
25436;DHT22;13363;52.772;-3.890;2023-02-27T16:52:24;9.60;99.90
25436;DHT22;13363;52.772;-3.890;2023-02-27T16:54:49;9.50;99.90
25436;DHT22;13363;52.772;-3.890;2023-02-27T16:57:15;9.50;99.90
25436;DHT22;13363;52.772;-3.890;2023-02-27T16:59:42;9.50;99.90
25436;DHT22;13363;52.772;-3.890;2023-02-27T17:02:13;9.50;99.90
25436;DHT22;13363;52.772;-3.890;2023-02-27T17:04:39;9.50;99.90
25436;DHT22;13363;52.772;-3.890;2023-02-27T17:07:11;9.50;99.90
25436;DHT22;13363;52.772;-3.890;2023-02-27T17:09:37;9.50;99.90
25436;DHT22;13363;52.772;-3.890;2023-02-27T17:12:03;9.50;99.90
25436;DHT22;13363;52.772;-3.890;2023-02-27T17:14:29;9.40;99.90
25436;DHT22;13363;52.772;-3.890;2023-02-27T17:16:55;9.40;99.90
25436;DHT22;13363;52.772;-3.890;2023-02-27T17:19:21;9.40;99.90
25436;DHT22;13363;52.772;-3.890;2023-02-27T17:21:47;9.40;99.90
25436;DHT22;13363;52.772;-3.890;2023-02-27T17:24:13;9.40;99.90
25436;DHT22;13363;52.772;-3.890;2023-02-27T17:26:39;9.40;99.90
25436;DHT22;13363;52.772;-3.890;2023-02-27T17:29:05;9.40;99.90
25436;DHT22;13363;52.772;-3.890;2023-02-27T17:31:31;9.40;99.90
25436;DHT22;13363;52.772;-3.890;2023-02-27T17:33:56;9.40;99.90
25436;DHT22;13363;52.772;-3.890;2023-02-27T17:36:23;9.40;99.90
25436;DHT22;13363;52.772;-3.890;2023-02-27T17:38:56;9.30;99.90
25436;DHT22;13363;52.772;-3.890;2023-02-27T17:41:25;9.30;99.90
25436;DHT22;13363;52.772;-3.890;2023-02-27T17:43:51;9.30;99.90
25436;DHT22;13363;52.772;-3.890;2023-02-27T17:46:18;9.20;99.90
25436;DHT22;13363;52.772;-3.890;2023-02-27T17:48:44;9.20;99.90
25436;DHT22;13363;52.772;-3.890;2023-02-27T17:51:11;9.20;99.90
25436;DHT22;13363;52.772;-3.890;2023-02-27T17:53:38;9.20;99.90
25436;DHT22;13363;52.772;-3.890;2023-02-27T17:56:05;9.30;99.90
25436;DHT22;13363;52.772;-3.890;2023-02-27T17:58:32;9.20;99.90
25436;DHT22;13363;52.772;-3.890;2023-02-27T18:01:10;9.10;99.90
25436;DHT22;13363;52.772;-3.890;2023-02-27T18:03:36;9.10;99.90
25436;DHT22;13363;52.772;-3.890;2023-02-27T18:06:03;9.10;99.90
25436;DHT22;13363;52.772;-3.890;2023-02-27T18:08:29;9.10;99.90
25436;DHT22;13363;52.772;-3.890;2023-02-27T18:10:56;9.10;99.90
25436;DHT22;13363;52.772;-3.890;2023-02-27T18:13:23;9.20;99.90
25436;DHT22;13363;52.772;-3.890;2023-02-27T18:15:50;9.10;99.90
25436;DHT22;13363;52.772;-3.890;2023-02-27T18:18:17;9.10;99.90
25436;DHT22;13363;52.772;-3.890;2023-02-27T18:20:44;9.00;99.90
25436;DHT22;13363;52.772;-3.890;2023-02-27T18:23:10;9.00;99.90
25436;DHT22;13363;52.772;-3.890;2023-02-27T18:25:36;9.00;99.90
25436;DHT22;13363;52.772;-3.890;2023-02-27T18:28:03;9.00;99.90
25436;DHT22;13363;52.772;-3.890;2023-02-27T18:30:30;9.00;99.90
25436;DHT22;13363;52.772;-3.890;2023-02-27T18:32:58;9.00;99.90
25436;DHT22;13363;52.772;-3.890;2023-02-27T18:35:25;9.00;99.90
25436;DHT22;13363;52.772;-3.890;2023-02-27T18:37:51;9.00;99.90
25436;DHT22;13363;52.772;-3.890;2023-02-27T18:40:18;8.90;99.90
25436;DHT22;13363;52.772;-3.890;2023-02-27T18:42:49;8.90;99.90
25436;DHT22;13363;52.772;-3.890;2023-02-27T18:45:17;9.00;99.90
25436;DHT22;13363;52.772;-3.890;2023-02-27T18:47:43;8.90;99.90
25436;DHT22;13363;52.772;-3.890;2023-02-27T18:50:10;8.90;99.90
25436;DHT22;13363;52.772;-3.890;2023-02-27T18:52:36;8.90;99.90
25436;DHT22;13363;52.772;-3.890;2023-02-27T18:55:02;8.80;99.90
25436;DHT22;13363;52.772;-3.890;2023-02-27T18:57:28;8.80;99.90
25436;DHT22;13363;52.772;-3.890;2023-02-27T18:59:54;8.90;99.90